sensor_id;sensor_type;location;lat;lon;timestamp;temperature;humidity
23471;DHT22;11908;50.806;4.424;2022-11-20T00:00:24;4.60;99.90
23471;DHT22;11908;50.806;4.424;2022-11-20T00:02:49;4.60;99.90
23471;DHT22;11908;50.806;4.424;2022-11-20T00:05:15;4.60;99.90
23471;DHT22;11908;50.806;4.424;2022-11-20T00:07:41;4.60;99.90
23471;DHT22;11908;50.806;4.424;2022-11-20T00:10:07;4.70;99.90
23471;DHT22;11908;50.806;4.424;2022-11-20T00:12:32;4.70;99.90
23471;DHT22;11908;50.806;4.424;2022-11-20T00:14:58;4.80;99.90
23471;DHT22;11908;50.806;4.424;2022-11-20T00:17:24;4.90;99.90
23471;DHT22;11908;50.806;4.424;2022-11-20T00:19:49;4.90;99.90
23471;DHT22;11908;50.806;4.424;2022-11-20T00:22:15;5.00;99.90
23471;DHT22;11908;50.806;4.424;2022-11-20T00:24:41;4.90;99.90
23471;DHT22;11908;50.806;4.424;2022-11-20T00:27:06;4.90;99.90
23471;DHT22;11908;50.806;4.424;2022-11-20T00:29:32;5.00;99.90
23471;DHT22;11908;50.806;4.424;2022-11-20T00:31:58;5.00;99.90
23471;DHT22;11908;50.806;4.424;2022-11-20T00:34:23;5.00;99.90
23471;DHT22;11908;50.806;4.424;2022-11-20T00:36:49;4.90;99.90
23471;DHT22;11908;50.806;4.424;2022-11-20T00:39:15;4.90;99.90
23471;DHT22;11908;50.806;4.424;2022-11-20T00:41:40;5.00;99.90
23471;DHT22;11908;50.806;4.424;2022-11-20T00:44:06;5.10;99.90
23471;DHT22;11908;50.806;4.424;2022-11-20T00:46:31;5.00;99.90
23471;DHT22;11908;50.806;4.424;2022-11-20T00:48:57;5.00;99.90
23471;DHT22;11908;50.806;4.424;2022-11-20T00:51:24;5.00;99.90
23471;DHT22;11908;50.806;4.424;2022-11-20T00:53:51;5.00;99.90
23471;DHT22;11908;50.806;4.424;2022-11-20T00:56:18;5.00;99.90
23471;DHT22;11908;50.806;4.424;2022-11-20T00:58:46;5.10;99.90
23471;DHT22;11908;50.806;4.424;2022-11-20T01:03:43;4.90;99.90
23471;DHT22;11908;50.806;4.424;2022-11-20T01:06:18;4.80;99.90
23471;DHT22;11908;50.806;4.424;2022-11-20T01:08:45;4.70;99.90
23471;DHT22;11908;50.806;4.424;2022-11-20T01:11:17;4.70;99.90
23471;DHT22;11908;50.806;4.424;2022-11-20T01:13:45;4.80;99.90
23471;DHT22;11908;50.806;4.424;2022-11-20T01:16:19;4.90;99.90
23471;DHT22;11908;50.806;4.424;2022-11-20T01:18:48;4.80;99.90
23471;DHT22;11908;50.806;4.424;2022-11-20T01:21:17;4.80;99.90
23471;DHT22;11908;50.806;4.424;2022-11-20T01:23:44;4.80;99.90
23471;DHT22;11908;50.806;4.424;2022-11-20T01:26:15;4.90;99.90
23471;DHT22;11908;50.806;4.424;2022-11-20T01:28:41;4.90;99.90
23471;DHT22;11908;50.806;4.424;2022-11-20T01:31:34;4.90;99.90
23471;DHT22;11908;50.806;4.424;2022-11-20T01:34:05;5.10;99.90
23471;DHT22;11908;50.806;4.424;2022-11-20T01:36:32;5.20;99.90
23471;DHT22;11908;50.806;4.424;2022-11-20T01:39:00;5.30;99.90
23471;DHT22;11908;50.806;4.424;2022-11-20T01:41:28;5.30;99.90
23471;DHT22;11908;50.806;4.424;2022-11-20T01:44:15;5.20;99.90
23471;DHT22;11908;50.806;4.424;2022-11-20T01:47:08;5.30;99.90
23471;DHT22;11908;50.806;4.424;2022-11-20T01:49:45;5.40;99.90
23471;DHT22;11908;50.806;4.424;2022-11-20T01:52:18;5.50;99.90
23471;DHT22;11908;50.806;4.424;2022-11-20T01:57:31;5.30;99.90
23471;DHT22;11908;50.806;4.424;2022-11-20T02:00:04;5.40;99.90
23471;DHT22;11908;50.806;4.424;2022-11-20T02:02:30;5.50;99.90
23471;DHT22;11908;50.806;4.424;2022-11-20T02:05:00;5.60;99.90
23471;DHT22;11908;50.806;4.424;2022-11-20T02:07:28;5.50;99.90
23471;DHT22;11908;50.806;4.424;2022-11-20T02:09:54;5.50;99.90
23471;DHT22;11908;50.806;4.424;2022-11-20T02:12:20;5.20;99.90
23471;DHT22;11908;50.806;4.424;2022-11-20T02:15:04;5.30;99.90
23471;DHT22;11908;50.806;4.424;2022-11-20T02:17:30;5.20;99.90
23471;DHT22;11908;50.806;4.424;2022-11-20T02:19:56;5.40;99.90
23471;DHT22;11908;50.806;4.424;2022-11-20T02:22:31;5.60;99.90
23471;DHT22;11908;50.806;4.424;2022-11-20T02:25:00;5.70;99.90
23471;DHT22;11908;50.806;4.424;2022-11-20T02:27:28;5.70;99.90
23471;DHT22;11908;50.806;4.424;2022-11-20T02:30:01;5.60;99.90
23471;DHT22;11908;50.806;4.424;2022-11-20T02:32:30;5.50;99.90
23471;DHT22;11908;50.806;4.424;2022-11-20T02:34:56;5.60;99.90
23471;DHT22;11908;50.806;4.424;2022-11-20T02:37:22;5.50;99.90
23471;DHT22;11908;50.806;4.424;2022-11-20T02:39:50;5.50;99.90
23471;DHT22;11908;50.806;4.424;2022-11-20T02:42:16;5.60;99.90
23471;DHT22;11908;50.806;4.424;2022-11-20T02:44:42;5.60;99.90
23471;DHT22;11908;50.806;4.424;2022-11-20T02:47:08;5.60;99.90
23471;DHT22;11908;50.806;4.424;2022-11-20T02:49:33;5.50;99.90
23471;DHT22;11908;50.806;4.424;2022-11-20T02:51:59;5.50;99.90
23471;DHT22;11908;50.806;4.424;2022-11-20T02:54:25;5.50;99.90
23471;DHT22;11908;50.806;4.424;2022-11-20T02:56:51;5.50;99.90
23471;DHT22;11908;50.806;4.424;2022-11-20T02:59:17;5.50;99.90
23471;DHT22;11908;50.806;4.424;2022-11-20T03:01:42;5.30;99.90
23471;DHT22;11908;50.806;4.424;2022-11-20T03:04:08;5.40;99.90
23471;DHT22;11908;50.806;4.424;2022-11-20T03:06:34;5.40;99.90
23471;DHT22;11908;50.806;4.424;2022-11-20T03:08:59;5.40;99.90
23471;DHT22;11908;50.806;4.424;2022-11-20T03:11:25;5.50;99.90
23471;DHT22;11908;50.806;4.424;2022-11-20T03:13:51;5.50;99.90
23471;DHT22;11908;50.806;4.424;2022-11-20T03:16:19;5.40;99.90
23471;DHT22;11908;50.806;4.424;2022-11-20T03:18:45;5.50;99.90
23471;DHT22;11908;50.806;4.424;2022-11-20T03:21:12;5.60;99.90
23471;DHT22;11908;50.806;4.424;2022-11-20T03:23:39;5.60;99.90
23471;DHT22;11908;50.806;4.424;2022-11-20T03:26:09;5.50;99.90
23471;DHT22;11908;50.806;4.424;2022-11-20T03:28:35;5.50;99.90
23471;DHT22;11908;50.806;4.424;2022-11-20T03:31:12;5.50;99.90
23471;DHT22;11908;50.806;4.424;2022-11-20T03:33:39;5.40;99.90
23471;DHT22;11908;50.806;4.424;2022-11-20T03:36:07;5.50;99.90
23471;DHT22;11908;50.806;4.424;2022-11-20T03:38:33;5.50;99.90
23471;DHT22;11908;50.806;4.424;2022-11-20T03:41:04;5.50;99.90
23471;DHT22;11908;50.806;4.424;2022-11-20T03:43:30;5.60;99.90
23471;DHT22;11908;50.806;4.424;2022-11-20T03:45:55;5.70;99.90
23471;DHT22;11908;50.806;4.424;2022-11-20T03:48:21;5.60;99.90
23471;DHT22;11908;50.806;4.424;2022-11-20T03:50:47;5.70;99.90
23471;DHT22;11908;50.806;4.424;2022-11-20T03:53:14;5.60;99.90
23471;DHT22;11908;50.806;4.424;2022-11-20T03:55:40;5.60;99.90
23471;DHT22;11908;50.806;4.424;2022-11-20T03:58:05;5.60;99.90
23471;DHT22;11908;50.806;4.424;2022-11-20T04:00:31;5.60;99.90
23471;DHT22;11908;50.806;4.424;2022-11-20T04:03:01;5.60;99.90
23471;DHT22;11908;50.806;4.424;2022-11-20T04:05:27;5.70;99.90
23471;DHT22;11908;50.806;4.424;2022-11-20T04:07:53;5.70;99.90
23471;DHT22;11908;50.806;4.424;2022-11-20T04:10:19;5.80;99.90
23471;DHT22;11908;50.806;4.424;2022-11-20T04:12:45;5.80;99.90
23471;DHT22;11908;50.806;4.424;2022-11-20T04:15:11;5.80;99.90
23471;DHT22;11908;50.806;4.424;2022-11-20T04:17:36;5.90;99.90
23471;DHT22;11908;50.806;4.424;2022-11-20T04:20:03;5.90;99.90
23471;DHT22;11908;50.806;4.424;2022-11-20T04:22:29;5.80;99.90
23471;DHT22;11908;50.806;4.424;2022-11-20T04:24:54;5.80;99.90
23471;DHT22;11908;50.806;4.424;2022-11-20T04:27:20;5.80;99.90
23471;DHT22;11908;50.806;4.424;2022-11-20T04:29:46;5.90;99.90
23471;DHT22;11908;50.806;4.424;2022-11-20T04:32:11;5.90;99.90
23471;DHT22;11908;50.806;4.424;2022-11-20T04:34:37;6.00;99.90
23471;DHT22;11908;50.806;4.424;2022-11-20T04:37:03;6.00;99.90
23471;DHT22;11908;50.806;4.424;2022-11-20T04:39:28;6.00;99.90
23471;DHT22;11908;50.806;4.424;2022-11-20T04:41:54;6.00;99.90
23471;DHT22;11908;50.806;4.424;2022-11-20T04:44:39;5.90;99.90
23471;DHT22;11908;50.806;4.424;2022-11-20T04:47:04;6.00;99.90
23471;DHT22;11908;50.806;4.424;2022-11-20T04:49:30;5.80;99.90
23471;DHT22;11908;50.806;4.424;2022-11-20T04:51:57;5.80;99.90
23471;DHT22;11908;50.806;4.424;2022-11-20T04:54:23;5.80;99.90
23471;DHT22;11908;50.806;4.424;2022-11-20T04:56:49;5.80;99.90
23471;DHT22;11908;50.806;4.424;2022-11-20T04:59:15;5.80;99.90
23471;DHT22;11908;50.806;4.424;2022-11-20T05:01:40;5.90;99.90
23471;DHT22;11908;50.806;4.424;2022-11-20T05:04:06;5.90;99.90
23471;DHT22;11908;50.806;4.424;2022-11-20T05:06:32;6.00;99.90
23471;DHT22;11908;50.806;4.424;2022-11-20T05:08:58;5.90;99.90
23471;DHT22;11908;50.806;4.424;2022-11-20T05:11:24;5.90;99.90
23471;DHT22;11908;50.806;4.424;2022-11-20T05:13:51;5.90;99.90
23471;DHT22;11908;50.806;4.424;2022-11-20T05:16:22;5.90;99.90
23471;DHT22;11908;50.806;4.424;2022-11-20T05:18:48;6.00;99.90
23471;DHT22;11908;50.806;4.424;2022-11-20T05:21:14;6.00;99.90
23471;DHT22;11908;50.806;4.424;2022-11-20T05:23:40;6.10;99.90
23471;DHT22;11908;50.806;4.424;2022-11-20T05:26:08;6.10;99.90
23471;DHT22;11908;50.806;4.424;2022-11-20T05:28:37;6.10;99.90
23471;DHT22;11908;50.806;4.424;2022-11-20T05:31:13;5.90;99.90
23471;DHT22;11908;50.806;4.424;2022-11-20T05:33:41;5.90;99.90
23471;DHT22;11908;50.806;4.424;2022-11-20T05:36:07;5.90;99.90
23471;DHT22;11908;50.806;4.424;2022-11-20T05:38:33;5.90;99.90
23471;DHT22;11908;50.806;4.424;2022-11-20T05:41:04;5.90;99.90
23471;DHT22;11908;50.806;4.424;2022-11-20T05:43:32;5.90;99.90
23471;DHT22;11908;50.806;4.424;2022-11-20T05:45:59;5.90;99.90
23471;DHT22;11908;50.806;4.424;2022-11-20T05:48:24;5.90;99.90
23471;DHT22;11908;50.806;4.424;2022-11-20T05:50:50;5.80;99.90
23471;DHT22;11908;50.806;4.424;2022-11-20T05:53:16;5.90;99.90
23471;DHT22;11908;50.806;4.424;2022-11-20T05:55:41;6.00;99.90
23471;DHT22;11908;50.806;4.424;2022-11-20T05:58:07;6.00;99.90
23471;DHT22;11908;50.806;4.424;2022-11-20T06:00:33;5.90;99.90
23471;DHT22;11908;50.806;4.424;2022-11-20T06:02:58;5.90;99.90
23471;DHT22;11908;50.806;4.424;2022-11-20T06:05:24;5.90;99.90
23471;DHT22;11908;50.806;4.424;2022-11-20T06:07:50;5.90;99.90
23471;DHT22;11908;50.806;4.424;2022-11-20T06:10:15;6.00;99.90
23471;DHT22;11908;50.806;4.424;2022-11-20T06:12:41;6.10;99.90
23471;DHT22;11908;50.806;4.424;2022-11-20T06:15:07;5.90;99.90
23471;DHT22;11908;50.806;4.424;2022-11-20T06:17:33;5.90;99.90
23471;DHT22;11908;50.806;4.424;2022-11-20T06:19:58;5.90;99.90
23471;DHT22;11908;50.806;4.424;2022-11-20T06:22:24;5.90;99.90
23471;DHT22;11908;50.806;4.424;2022-11-20T06:24:49;6.00;99.90
23471;DHT22;11908;50.806;4.424;2022-11-20T06:27:15;6.00;99.90
23471;DHT22;11908;50.806;4.424;2022-11-20T06:29:41;6.00;99.90
23471;DHT22;11908;50.806;4.424;2022-11-20T06:32:07;6.00;99.90
23471;DHT22;11908;50.806;4.424;2022-11-20T06:34:33;5.90;99.90
23471;DHT22;11908;50.806;4.424;2022-11-20T06:36:58;6.00;99.90
23471;DHT22;11908;50.806;4.424;2022-11-20T06:39:24;6.00;99.90
23471;DHT22;11908;50.806;4.424;2022-11-20T06:41:49;6.10;99.90
23471;DHT22;11908;50.806;4.424;2022-11-20T06:44:15;6.00;99.90
23471;DHT22;11908;50.806;4.424;2022-11-20T06:46:41;6.00;99.90
23471;DHT22;11908;50.806;4.424;2022-11-20T06:49:06;5.90;99.90
23471;DHT22;11908;50.806;4.424;2022-11-20T06:51:32;6.00;99.90
23471;DHT22;11908;50.806;4.424;2022-11-20T06:53:58;6.10;99.90
23471;DHT22;11908;50.806;4.424;2022-11-20T06:56:23;6.20;99.90
23471;DHT22;11908;50.806;4.424;2022-11-20T06:58:49;6.10;99.90
23471;DHT22;11908;50.806;4.424;2022-11-20T07:01:15;6.20;99.90
23471;DHT22;11908;50.806;4.424;2022-11-20T07:03:41;6.20;99.90
23471;DHT22;11908;50.806;4.424;2022-11-20T07:06:07;6.30;99.90
23471;DHT22;11908;50.806;4.424;2022-11-20T07:08:33;6.20;99.90
23471;DHT22;11908;50.806;4.424;2022-11-20T07:11:00;6.10;99.90
23471;DHT22;11908;50.806;4.424;2022-11-20T07:13:27;6.00;99.90
23471;DHT22;11908;50.806;4.424;2022-11-20T07:15:53;6.10;99.90
23471;DHT22;11908;50.806;4.424;2022-11-20T07:18:19;6.20;99.90
23471;DHT22;11908;50.806;4.424;2022-11-20T07:20:44;6.00;99.90
23471;DHT22;11908;50.806;4.424;2022-11-20T07:23:10;6.00;99.90
23471;DHT22;11908;50.806;4.424;2022-11-20T07:25:39;6.10;99.90
23471;DHT22;11908;50.806;4.424;2022-11-20T07:28:04;6.20;99.90
23471;DHT22;11908;50.806;4.424;2022-11-20T07:30:30;6.20;99.90
23471;DHT22;11908;50.806;4.424;2022-11-20T07:32:56;6.30;99.90
23471;DHT22;11908;50.806;4.424;2022-11-20T07:35:25;6.40;99.90
23471;DHT22;11908;50.806;4.424;2022-11-20T07:37:51;6.40;99.90
23471;DHT22;11908;50.806;4.424;2022-11-20T07:40:17;6.40;99.90
23471;DHT22;11908;50.806;4.424;2022-11-20T07:42:49;6.50;99.90
23471;DHT22;11908;50.806;4.424;2022-11-20T07:45:15;6.60;99.90
23471;DHT22;11908;50.806;4.424;2022-11-20T07:47:41;6.70;99.90
23471;DHT22;11908;50.806;4.424;2022-11-20T07:50:07;6.60;99.90
23471;DHT22;11908;50.806;4.424;2022-11-20T07:52:32;6.60;99.90
23471;DHT22;11908;50.806;4.424;2022-11-20T07:54:58;6.50;99.90
23471;DHT22;11908;50.806;4.424;2022-11-20T07:57:24;6.60;99.90
23471;DHT22;11908;50.806;4.424;2022-11-20T07:59:49;6.70;99.90
23471;DHT22;11908;50.806;4.424;2022-11-20T08:02:15;6.60;99.90
23471;DHT22;11908;50.806;4.424;2022-11-20T08:04:41;6.60;99.90
23471;DHT22;11908;50.806;4.424;2022-11-20T08:07:06;6.70;99.90
23471;DHT22;11908;50.806;4.424;2022-11-20T08:09:32;6.70;99.90
23471;DHT22;11908;50.806;4.424;2022-11-20T08:11:58;6.70;99.90
23471;DHT22;11908;50.806;4.424;2022-11-20T08:14:42;6.70;99.90
23471;DHT22;11908;50.806;4.424;2022-11-20T08:17:07;6.80;99.90
23471;DHT22;11908;50.806;4.424;2022-11-20T08:19:33;6.80;99.90
23471;DHT22;11908;50.806;4.424;2022-11-20T08:21:59;6.70;99.90
23471;DHT22;11908;50.806;4.424;2022-11-20T08:24:24;7.00;99.90
23471;DHT22;11908;50.806;4.424;2022-11-20T08:26:51;7.00;99.90
23471;DHT22;11908;50.806;4.424;2022-11-20T08:29:17;7.00;99.90
23471;DHT22;11908;50.806;4.424;2022-11-20T08:31:43;7.10;99.90
23471;DHT22;11908;50.806;4.424;2022-11-20T08:34:09;7.10;99.90
23471;DHT22;11908;50.806;4.424;2022-11-20T08:36:35;7.20;99.90
23471;DHT22;11908;50.806;4.424;2022-11-20T08:39:02;7.30;99.90
23471;DHT22;11908;50.806;4.424;2022-11-20T08:41:29;7.40;99.90
23471;DHT22;11908;50.806;4.424;2022-11-20T08:43:58;7.60;99.90
23471;DHT22;11908;50.806;4.424;2022-11-20T08:46:25;7.60;99.90
23471;DHT22;11908;50.806;4.424;2022-11-20T08:48:51;7.70;99.90
23471;DHT22;11908;50.806;4.424;2022-11-20T08:51:18;7.70;99.90
23471;DHT22;11908;50.806;4.424;2022-11-20T08:53:44;7.80;99.90
23471;DHT22;11908;50.806;4.424;2022-11-20T08:56:10;7.90;99.90
23471;DHT22;11908;50.806;4.424;2022-11-20T08:58:37;7.90;99.90
23471;DHT22;11908;50.806;4.424;2022-11-20T09:01:03;8.00;99.90
23471;DHT22;11908;50.806;4.424;2022-11-20T09:03:29;8.10;99.90
23471;DHT22;11908;50.806;4.424;2022-11-20T09:05:59;8.10;99.90
23471;DHT22;11908;50.806;4.424;2022-11-20T09:08:25;8.10;99.90
23471;DHT22;11908;50.806;4.424;2022-11-20T09:10:52;8.00;99.90
23471;DHT22;11908;50.806;4.424;2022-11-20T09:13:18;8.00;99.90
23471;DHT22;11908;50.806;4.424;2022-11-20T09:15:44;8.10;99.90
23471;DHT22;11908;50.806;4.424;2022-11-20T09:18:10;8.20;99.90
23471;DHT22;11908;50.806;4.424;2022-11-20T09:20:35;8.40;99.90
23471;DHT22;11908;50.806;4.424;2022-11-20T09:23:01;8.40;99.90
23471;DHT22;11908;50.806;4.424;2022-11-20T09:25:27;8.60;99.90
23471;DHT22;11908;50.806;4.424;2022-11-20T09:27:59;8.70;99.90
23471;DHT22;11908;50.806;4.424;2022-11-20T09:30:26;8.80;99.90
23471;DHT22;11908;50.806;4.424;2022-11-20T09:32:52;8.80;99.90
23471;DHT22;11908;50.806;4.424;2022-11-20T09:35:18;8.80;99.90
23471;DHT22;11908;50.806;4.424;2022-11-20T09:37:45;8.90;99.90
23471;DHT22;11908;50.806;4.424;2022-11-20T09:43:10;8.90;99.90
23471;DHT22;11908;50.806;4.424;2022-11-20T09:45:50;8.80;99.90
23471;DHT22;11908;50.806;4.424;2022-11-20T09:54:22;9.10;99.90
23471;DHT22;11908;50.806;4.424;2022-11-20T09:57:18;9.10;99.90
23471;DHT22;11908;50.806;4.424;2022-11-20T09:59:51;9.10;99.90
23471;DHT22;11908;50.806;4.424;2022-11-20T10:02:42;9.20;99.90
23471;DHT22;11908;50.806;4.424;2022-11-20T10:05:30;9.30;99.90
23471;DHT22;11908;50.806;4.424;2022-11-20T10:29:40;9.50;99.90
23471;DHT22;11908;50.806;4.424;2022-11-20T10:32:19;9.50;99.90
23471;DHT22;11908;50.806;4.424;2022-11-20T10:34:59;9.70;99.90
23471;DHT22;11908;50.806;4.424;2022-11-20T10:37:27;9.70;99.90
23471;DHT22;11908;50.806;4.424;2022-11-20T10:42:41;10.20;99.90
23471;DHT22;11908;50.806;4.424;2022-11-20T10:48:10;10.60;99.90
23471;DHT22;11908;50.806;4.424;2022-11-20T10:50:40;10.20;99.90
23471;DHT22;11908;50.806;4.424;2022-11-20T11:01:45;10.30;99.90
23471;DHT22;11908;50.806;4.424;2022-11-20T11:07:10;10.30;99.90
23471;DHT22;11908;50.806;4.424;2022-11-20T11:09:41;10.30;99.90
23471;DHT22;11908;50.806;4.424;2022-11-20T11:12:09;10.10;99.90
23471;DHT22;11908;50.806;4.424;2022-11-20T11:14:44;10.10;99.90
23471;DHT22;11908;50.806;4.424;2022-11-20T11:22:49;10.20;99.90
23471;DHT22;11908;50.806;4.424;2022-11-20T11:25:35;10.10;99.90
23471;DHT22;11908;50.806;4.424;2022-11-20T11:30:44;10.10;99.90
23471;DHT22;11908;50.806;4.424;2022-11-20T11:33:32;10.10;99.90
23471;DHT22;11908;50.806;4.424;2022-11-20T11:36:14;10.10;99.90
23471;DHT22;11908;50.806;4.424;2022-11-20T11:38:42;10.10;99.90
23471;DHT22;11908;50.806;4.424;2022-11-20T11:41:31;9.90;99.90
23471;DHT22;11908;50.806;4.424;2022-11-20T11:44:24;9.80;99.90
23471;DHT22;11908;50.806;4.424;2022-11-20T11:47:22;9.60;99.90
23471;DHT22;11908;50.806;4.424;2022-11-20T11:49:49;9.50;99.90
23471;DHT22;11908;50.806;4.424;2022-11-20T11:52:25;9.40;99.90
23471;DHT22;11908;50.806;4.424;2022-11-20T11:55:00;9.40;99.90
23471;DHT22;11908;50.806;4.424;2022-11-20T11:57:37;9.30;99.90
23471;DHT22;11908;50.806;4.424;2022-11-20T12:00:13;9.30;99.90
23471;DHT22;11908;50.806;4.424;2022-11-20T12:08:09;9.10;99.90
23471;DHT22;11908;50.806;4.424;2022-11-20T12:10:56;9.10;99.90
23471;DHT22;11908;50.806;4.424;2022-11-20T12:13:37;9.00;99.90
23471;DHT22;11908;50.806;4.424;2022-11-20T12:16:05;9.00;99.90
23471;DHT22;11908;50.806;4.424;2022-11-20T12:18:34;8.90;99.90
23471;DHT22;11908;50.806;4.424;2022-11-20T12:51:14;8.80;99.90
23471;DHT22;11908;50.806;4.424;2022-11-20T13:05:24;8.80;99.90
23471;DHT22;11908;50.806;4.424;2022-11-20T13:07:53;9.00;99.90
23471;DHT22;11908;50.806;4.424;2022-11-20T13:13:16;9.10;99.90
23471;DHT22;11908;50.806;4.424;2022-11-20T13:18:22;9.20;99.90
23471;DHT22;11908;50.806;4.424;2022-11-20T13:20:48;9.20;99.90
23471;DHT22;11908;50.806;4.424;2022-11-20T13:23:25;9.10;99.90
23471;DHT22;11908;50.806;4.424;2022-11-20T13:26:06;9.00;99.90
23471;DHT22;11908;50.806;4.424;2022-11-20T13:28:39;9.00;99.90
23471;DHT22;11908;50.806;4.424;2022-11-20T13:31:25;8.90;99.90
23471;DHT22;11908;50.806;4.424;2022-11-20T13:33:55;8.80;99.90
23471;DHT22;11908;50.806;4.424;2022-11-20T13:36:26;8.80;99.90
23471;DHT22;11908;50.806;4.424;2022-11-20T13:38:54;8.80;99.90
23471;DHT22;11908;50.806;4.424;2022-11-20T13:44:31;8.70;99.90
23471;DHT22;11908;50.806;4.424;2022-11-20T13:46:58;8.70;99.90
23471;DHT22;11908;50.806;4.424;2022-11-20T13:49:38;8.60;99.90
23471;DHT22;11908;50.806;4.424;2022-11-20T13:52:27;8.60;99.90
23471;DHT22;11908;50.806;4.424;2022-11-20T13:58:28;8.70;99.90
23471;DHT22;11908;50.806;4.424;2022-11-20T14:01:21;8.70;99.90
23471;DHT22;11908;50.806;4.424;2022-11-20T14:03:48;8.70;99.90
23471;DHT22;11908;50.806;4.424;2022-11-20T14:06:41;8.70;99.90
23471;DHT22;11908;50.806;4.424;2022-11-20T14:09:12;8.70;99.90
23471;DHT22;11908;50.806;4.424;2022-11-20T14:11:46;8.60;99.90
23471;DHT22;11908;50.806;4.424;2022-11-20T14:14:18;8.60;99.90
23471;DHT22;11908;50.806;4.424;2022-11-20T14:16:45;8.50;99.90
23471;DHT22;11908;50.806;4.424;2022-11-20T14:19:28;8.60;99.90
23471;DHT22;11908;50.806;4.424;2022-11-20T14:24:35;8.50;99.90
23471;DHT22;11908;50.806;4.424;2022-11-20T14:27:01;8.50;99.90
23471;DHT22;11908;50.806;4.424;2022-11-20T14:29:35;8.50;99.90
23471;DHT22;11908;50.806;4.424;2022-11-20T14:32:02;8.50;99.90
23471;DHT22;11908;50.806;4.424;2022-11-20T14:34:31;8.40;99.90
23471;DHT22;11908;50.806;4.424;2022-11-20T14:37:03;8.40;99.90
23471;DHT22;11908;50.806;4.424;2022-11-20T14:39:35;8.30;99.90
23471;DHT22;11908;50.806;4.424;2022-11-20T14:42:02;8.30;99.90
23471;DHT22;11908;50.806;4.424;2022-11-20T14:44:33;8.40;99.90
23471;DHT22;11908;50.806;4.424;2022-11-20T14:47:00;8.40;99.90
23471;DHT22;11908;50.806;4.424;2022-11-20T14:49:30;8.40;99.90
23471;DHT22;11908;50.806;4.424;2022-11-20T14:52:01;8.50;99.90
23471;DHT22;11908;50.806;4.424;2022-11-20T14:54:27;8.40;99.90
23471;DHT22;11908;50.806;4.424;2022-11-20T14:56:57;8.40;99.90
23471;DHT22;11908;50.806;4.424;2022-11-20T14:59:31;8.40;99.90
23471;DHT22;11908;50.806;4.424;2022-11-20T15:02:07;8.40;99.90
23471;DHT22;11908;50.806;4.424;2022-11-20T15:04:45;8.40;99.90
23471;DHT22;11908;50.806;4.424;2022-11-20T15:07:11;8.40;99.90
23471;DHT22;11908;50.806;4.424;2022-11-20T15:09:36;8.50;99.90
23471;DHT22;11908;50.806;4.424;2022-11-20T15:12:03;8.50;99.90
23471;DHT22;11908;50.806;4.424;2022-11-20T15:14:30;8.50;99.90
23471;DHT22;11908;50.806;4.424;2022-11-20T15:16:56;8.50;99.90
23471;DHT22;11908;50.806;4.424;2022-11-20T15:19:24;8.60;99.90
23471;DHT22;11908;50.806;4.424;2022-11-20T15:21:50;8.60;99.90
23471;DHT22;11908;50.806;4.424;2022-11-20T15:24:16;8.60;99.90
23471;DHT22;11908;50.806;4.424;2022-11-20T15:26:42;8.70;99.90
23471;DHT22;11908;50.806;4.424;2022-11-20T15:29:10;8.70;99.90
23471;DHT22;11908;50.806;4.424;2022-11-20T15:31:36;8.70;99.90
23471;DHT22;11908;50.806;4.424;2022-11-20T15:34:04;8.80;99.90
23471;DHT22;11908;50.806;4.424;2022-11-20T15:36:31;8.80;99.90
23471;DHT22;11908;50.806;4.424;2022-11-20T15:38:57;8.80;99.90
23471;DHT22;11908;50.806;4.424;2022-11-20T15:41:23;8.70;99.90
23471;DHT22;11908;50.806;4.424;2022-11-20T15:43:48;8.70;99.90
23471;DHT22;11908;50.806;4.424;2022-11-20T15:46:16;8.70;99.90
23471;DHT22;11908;50.806;4.424;2022-11-20T15:48:45;8.60;99.90
23471;DHT22;11908;50.806;4.424;2022-11-20T15:53:42;8.80;99.90
23471;DHT22;11908;50.806;4.424;2022-11-20T15:56:11;8.80;99.90
23471;DHT22;11908;50.806;4.424;2022-11-20T15:58:37;8.80;99.90
23471;DHT22;11908;50.806;4.424;2022-11-20T16:01:02;8.80;99.90
23471;DHT22;11908;50.806;4.424;2022-11-20T16:03:28;8.70;99.90
23471;DHT22;11908;50.806;4.424;2022-11-20T16:05:54;8.80;99.90
23471;DHT22;11908;50.806;4.424;2022-11-20T16:08:19;8.80;99.90
23471;DHT22;11908;50.806;4.424;2022-11-20T16:10:45;8.90;99.90
23471;DHT22;11908;50.806;4.424;2022-11-20T16:13:16;8.90;99.90
23471;DHT22;11908;50.806;4.424;2022-11-20T16:16:05;9.00;99.90
23471;DHT22;11908;50.806;4.424;2022-11-20T16:18:32;9.00;99.90
23471;DHT22;11908;50.806;4.424;2022-11-20T16:20:58;9.00;99.90
23471;DHT22;11908;50.806;4.424;2022-11-20T16:23:24;9.10;99.90
23471;DHT22;11908;50.806;4.424;2022-11-20T16:25:50;9.00;99.90
23471;DHT22;11908;50.806;4.424;2022-11-20T16:28:16;9.00;99.90
23471;DHT22;11908;50.806;4.424;2022-11-20T16:30:42;8.90;99.90
23471;DHT22;11908;50.806;4.424;2022-11-20T16:33:16;8.90;99.90
23471;DHT22;11908;50.806;4.424;2022-11-20T16:35:43;8.90;99.90
23471;DHT22;11908;50.806;4.424;2022-11-20T16:38:09;8.90;99.90
23471;DHT22;11908;50.806;4.424;2022-11-20T16:40:35;8.80;99.90
23471;DHT22;11908;50.806;4.424;2022-11-20T16:43:09;8.80;99.90
23471;DHT22;11908;50.806;4.424;2022-11-20T16:45:40;8.80;99.90
23471;DHT22;11908;50.806;4.424;2022-11-20T16:48:06;8.80;99.90
23471;DHT22;11908;50.806;4.424;2022-11-20T16:50:31;8.90;99.90
23471;DHT22;11908;50.806;4.424;2022-11-20T16:52:57;8.90;99.90
23471;DHT22;11908;50.806;4.424;2022-11-20T16:55:23;8.90;99.90
23471;DHT22;11908;50.806;4.424;2022-11-20T16:57:48;8.90;99.90
23471;DHT22;11908;50.806;4.424;2022-11-20T17:00:14;8.90;99.90
23471;DHT22;11908;50.806;4.424;2022-11-20T17:02:40;8.90;99.90
23471;DHT22;11908;50.806;4.424;2022-11-20T17:05:06;8.80;99.90
23471;DHT22;11908;50.806;4.424;2022-11-20T17:07:31;8.90;99.90
23471;DHT22;11908;50.806;4.424;2022-11-20T17:09:57;8.90;99.90
23471;DHT22;11908;50.806;4.424;2022-11-20T17:12:23;8.90;99.90
23471;DHT22;11908;50.806;4.424;2022-11-20T17:14:48;8.90;99.90
23471;DHT22;11908;50.806;4.424;2022-11-20T17:17:14;8.80;99.90
23471;DHT22;11908;50.806;4.424;2022-11-20T17:19:40;8.90;99.90
23471;DHT22;11908;50.806;4.424;2022-11-20T17:22:05;8.80;99.90
23471;DHT22;11908;50.806;4.424;2022-11-20T17:24:31;8.80;99.90
23471;DHT22;11908;50.806;4.424;2022-11-20T17:26:57;8.70;99.90
23471;DHT22;11908;50.806;4.424;2022-11-20T17:29:23;8.70;99.90
23471;DHT22;11908;50.806;4.424;2022-11-20T17:31:49;8.70;99.90
23471;DHT22;11908;50.806;4.424;2022-11-20T17:34:15;8.70;99.90
23471;DHT22;11908;50.806;4.424;2022-11-20T17:36:41;8.70;99.90
23471;DHT22;11908;50.806;4.424;2022-11-20T17:39:10;8.70;99.90
23471;DHT22;11908;50.806;4.424;2022-11-20T17:41:36;8.70;99.90
23471;DHT22;11908;50.806;4.424;2022-11-20T17:44:02;8.60;99.90
23471;DHT22;11908;50.806;4.424;2022-11-20T17:46:30;8.60;99.90
23471;DHT22;11908;50.806;4.424;2022-11-20T17:49:00;8.80;99.90
23471;DHT22;11908;50.806;4.424;2022-11-20T17:51:28;8.70;99.90
23471;DHT22;11908;50.806;4.424;2022-11-20T17:53:57;8.70;99.90
23471;DHT22;11908;50.806;4.424;2022-11-20T17:56:24;8.80;99.90
23471;DHT22;11908;50.806;4.424;2022-11-20T17:59:10;8.80;99.90